Bob Baker Memorial Airport
PAIK : now visible

Airfield :











YOU CAN JOIN US ON...

 
LOGIN :

Register | Disclaimer

   EN    FR    IT 

 









Legend :    VFR   Marginal VFR   IFR   Intensive IFR   Very Intensive IFR
Visi :
Ceiling :
>= 8 km
>= 3000ft
5 to 8 km
1000 to 3000 ft
1500m to 5 km
500 to 1000 ft
800 to 1500m
200 to 500 ft
< 800m
< 200 ft
Symbols :   Thunderstorms  Fog  Heavy snow  Heavy precipitations  Wind > 20 kt






- Airport Elevation : 166 ft
- IATA code : IAN


PAIK - Bob Baker Memorial

CURRENT METAR :
  • 210217Z AUTO 06003KT 3SM -SN BR BKN026 OVC036 M19/M21 A3004 RMK AO2 P0000 FZRANO

EXPIRED METARs :
  • 210156Z AUTO 07006KT 4SM -SN BR BKN037 OVC045 M18/M21 A3003 RMK AO2 SLP177 P0000 T11831206 FZRANO
  • 210137Z AUTO VRB04KT 3SM -SN BR FEW021 BKN043 OVC050 M19/M21 A3003 RMK AO2 P0000 FZRANO
  • 210125Z AUTO 00000KT 3SM -SN BR FEW017 BKN021 OVC043 M19/M21 A3004 RMK AO2 P0000 FZRANO
  • 210056Z AUTO 04006KT 2SM -SN BR BKN021 BKN026 OVC034 M19/M21 A3005 RMK AO2 SLP181 P0000 T11891211 FZRANO
  • 210033Z AUTO 35011KT 3SM -SN BR BKN020 OVC038 M19/M22 A3004 RMK AO2 P0000 FZRANO
  • 210003Z AUTO 36009KT 2 1/2SM -SN BR BKN024 OVC029 M19/M22 A3005 RMK AO2 P0000 FZRANO
  • 202356Z AUTO 36008KT 3SM -SN BR SCT024 OVC031 M20/M22 A3006 RMK AO2 SLP184 P0000 60000 T12001222 11200 21228 56009 FZRANO
  • 202342Z AUTO 04005KT 2SM -SN BR BKN027 OVC033 M21/M23 A3006 RMK AO2 VIS 1V3 P0000 FZRANO
  • 202326Z AUTO VRB04KT 1 1/4SM -SN SCT019 OVC031 M21/M23 A3007 RMK AO2 VIS 3/4V2 1/2 P0000 FZRANO

TAF N/A
PAZA FIR / North America



MET'MAP, your aeronautical weather chart ! - Copyright ORBIFLY December 2007 - Disclaimer

ORBIFLY MET'MAP TEAM :

Programming & Development : Alexandra Zaïnal
Concept & original design : Baudouin d'Aumeries
Assistance for programming : Marc-Olivier Méhu
Technical & hardware support : Manuel Goepfert

Contact : metmap@orbifly.com




SOURCES & CREDITS :

   NOAA       Earth
Advisory